Time;durP1;ratioP1;P1;durP2;ratioP2;P2;SDS_P1;SDS_P2;PMS_P1;PMS_P2;Temp;Humidity;BMP_temperature;BMP_pressure;BME280_temperature;BME280_humidity;BME280_pressure;Samples;Min_cycle;Max_cycle;Signal;HPM_P1;HPM_P2
2023/06/30 00:00:21;;;;;;;12.48;11.88;;;;;;;;;;5056532;28;20266;-68
2023/06/30 00:02:47;;;;;;;12.63;12.02;;;;;;;;;;5064355;28;20047;-68
2023/06/30 00:05:15;;;;;;;11.75;11.20;;;;;;;;;;5063296;28;20479;-68
2023/06/30 00:07:42;;;;;;;12.10;11.50;;;;;;;;;;5057818;28;20017;-67
2023/06/30 00:10:08;;;;;;;12.20;11.60;;;;;;;;;;5065868;28;20020;-68
2023/06/30 00:12:33;;;;;;;11.88;11.30;;;;;;;;;;5059721;28;20395;-67
2023/06/30 00:14:59;;;;;;;12.15;11.55;;;;;;;;;;5040421;28;20071;-67
2023/06/30 00:17:24;;;;;;;11.70;11.20;;;;;;;;;;5051430;28;20126;-68
2023/06/30 00:19:50;;;;;;;11.98;11.40;;;;;;;;;;5053234;28;20476;-68
2023/06/30 00:22:17;;;;;;;12.13;11.52;;;;;;;;;;5043895;28;20037;-66
2023/06/30 00:24:43;;;;;;;12.05;11.45;;;;;;;;;;5051893;28;20025;-67
2023/06/30 00:27:08;;;;;;;12.10;11.50;;;;;;;;;;5051139;28;20009;-68
2023/06/30 00:29:33;;;;;;;11.95;11.35;;;;;;;;;;5053382;28;20098;-67
2023/06/30 00:31:59;;;;;;;12.15;11.55;;;;;;;;;;5048889;28;20063;-67
2023/06/30 00:34:24;;;;;;;11.55;11.05;;;;;;;;;;5044292;28;20017;-68
2023/06/30 00:36:49;;;;;;;12.13;11.52;;;;;;;;;;5048023;28;20013;-68
2023/06/30 00:39:14;;;;;;;12.80;12.18;;;;;;;;;;5039928;28;20563;-67
2023/06/30 00:41:40;;;;;;;12.23;11.63;;;;;;;;;;5053099;28;20060;-67
2023/06/30 00:44:05;;;;;;;11.60;11.10;;;;;;;;;;5043162;28;20026;-67
2023/06/30 00:46:30;;;;;;;12.32;11.73;;;;;;;;;;5053606;28;20017;-68
2023/06/30 00:48:56;;;;;;;11.93;11.38;;;;;;;;;;5048106;28;20022;-67
2023/06/30 00:51:21;;;;;;;11.68;11.18;;;;;;;;;;5052273;28;20075;-68
2023/06/30 00:53:47;;;;;;;12.13;11.52;;;;;;;;;;5052023;28;20028;-68
2023/06/30 00:56:12;;;;;;;13.10;12.40;;;;;;;;;;5052392;28;20457;-69
2023/06/30 00:58:37;;;;;;;12.05;11.45;;;;;;;;;;5042489;28;20499;-68
2023/06/30 01:01:20;;;;;;;12.45;11.85;;;;;;;;;;5053799;28;20042;-68
2023/06/30 01:03:48;;;;;;;13.13;12.43;;;;;;;;;;5048222;28;20049;-68
2023/06/30 01:06:38;;;;;;;11.82;11.25;;;;;;;;;;5051054;28;20104;-68
2023/06/30 01:09:08;;;;;;;12.80;12.20;;;;;;;;;;5043003;28;20017;-67
2023/06/30 01:11:34;;;;;;;12.18;11.57;;;;;;;;;;5047670;28;20101;-67
2023/06/30 01:14:00;;;;;;;12.32;11.73;;;;;;;;;;5051190;28;20111;-68
2023/06/30 01:16:28;;;;;;;11.93;11.32;;;;;;;;;;5045561;28;20021;-68
2023/06/30 01:18:54;;;;;;;11.90;11.32;;;;;;;;;;5049606;28;20499;-68
2023/06/30 01:21:21;;;;;;;12.60;12.00;;;;;;;;;;5053023;28;20033;-68
2023/06/30 01:23:50;;;;;;;11.90;11.40;;;;;;;;;;5043256;28;20021;-68
2023/06/30 01:26:15;;;;;;;12.50;11.90;;;;;;;;;;5048324;28;20473;-67
2023/06/30 01:28:41;;;;;;;11.98;11.38;;;;;;;;;;5048109;28;20020;-68
2023/06/30 01:31:09;;;;;;;12.20;11.60;;;;;;;;;;5043276;28;20682;-67
2023/06/30 01:33:37;;;;;;;11.80;11.27;;;;;;;;;;5045978;28;20028;-68
2023/06/30 01:36:03;;;;;;;12.65;12.05;;;;;;;;;;5056058;28;20491;-68
2023/06/30 01:38:28;;;;;;;11.77;11.27;;;;;;;;;;5055464;28;20024;-67
2023/06/30 01:40:54;;;;;;;12.57;11.98;;;;;;;;;;5057515;28;20029;-68
2023/06/30 01:43:19;;;;;;;12.60;12.00;;;;;;;;;;5056254;28;20024;-67
2023/06/30 01:45:45;;;;;;;12.43;11.82;;;;;;;;;;5045437;28;20095;-68
2023/06/30 01:48:10;;;;;;;12.52;11.93;;;;;;;;;;5054874;28;20028;-66
2023/06/30 01:50:36;;;;;;;12.43;11.82;;;;;;;;;;5049380;28;20068;-67
2023/06/30 01:53:02;;;;;;;12.82;12.15;;;;;;;;;;5049296;28;20189;-67
2023/06/30 01:55:27;;;;;;;13.40;12.70;;;;;;;;;;5052148;28;20475;-67
2023/06/30 01:57:52;;;;;;;12.30;11.70;;;;;;;;;;5055041;28;20035;-68
2023/06/30 02:00:18;;;;;;;12.88;12.20;;;;;;;;;;5048950;28;20446;-68
2023/06/30 02:02:43;;;;;;;12.82;12.18;;;;;;;;;;5047082;28;20159;-68
2023/06/30 02:05:08;;;;;;;13.07;12.38;;;;;;;;;;5049574;28;20021;-69
2023/06/30 02:07:34;;;;;;;12.00;11.40;;;;;;;;;;5043574;28;20047;-69
2023/06/30 02:09:59;;;;;;;11.65;11.10;;;;;;;;;;5041996;28;20022;-68
2023/06/30 02:12:25;;;;;;;11.57;11.05;;;;;;;;;;5040776;28;20029;-68
2023/06/30 02:14:50;;;;;;;11.80;11.23;;;;;;;;;;5045030;28;20024;-69
2023/06/30 02:17:15;;;;;;;11.82;11.23;;;;;;;;;;5041014;28;20029;-67
2023/06/30 02:19:41;;;;;;;12.00;11.40;;;;;;;;;;5042123;28;20029;-68
2023/06/30 02:22:06;;;;;;;11.90;11.30;;;;;;;;;;5046186;28;20025;-68
2023/06/30 02:24:32;;;;;;;11.85;11.27;;;;;;;;;;5051822;28;20109;-67
2023/06/30 02:26:57;;;;;;;11.35;10.85;;;;;;;;;;5047950;28;20037;-68
2023/06/30 02:29:22;;;;;;;11.45;10.95;;;;;;;;;;5050649;28;20357;-67
2023/06/30 02:31:48;;;;;;;12.15;11.55;;;;;;;;;;5049118;28;20039;-68
2023/06/30 02:34:13;;;;;;;11.52;11.02;;;;;;;;;;5048036;28;20424;-68
2023/06/30 02:36:38;;;;;;;12.32;11.73;;;;;;;;;;5047730;28;20024;-69
2023/06/30 02:39:04;;;;;;;12.55;11.95;;;;;;;;;;5050111;28;20025;-68
2023/06/30 02:41:29;;;;;;;12.82;12.15;;;;;;;;;;5046780;28;20483;-67
2023/06/30 02:43:54;;;;;;;12.60;12.00;;;;;;;;;;5048906;28;20054;-68
2023/06/30 02:46:20;;;;;;;11.70;11.10;;;;;;;;;;5049518;28;20096;-67
2023/06/30 02:48:45;;;;;;;12.48;11.88;;;;;;;;;;5050196;28;20063;-68
2023/06/30 02:51:10;;;;;;;12.18;11.57;;;;;;;;;;5050352;28;20014;-67
2023/06/30 02:53:36;;;;;;;12.40;11.80;;;;;;;;;;5050116;28;20044;-67
2023/06/30 02:56:01;;;;;;;12.55;11.95;;;;;;;;;;5046096;28;20024;-69
2023/06/30 02:58:26;;;;;;;12.43;11.82;;;;;;;;;;5043623;28;20108;-69
2023/06/30 03:00:51;;;;;;;12.40;11.80;;;;;;;;;;5050700;28;20024;-68
2023/06/30 03:03:17;;;;;;;12.88;12.20;;;;;;;;;;5048045;28;20484;-68
2023/06/30 03:05:42;;;;;;;13.52;12.82;;;;;;;;;;5045949;28;20040;-68
2023/06/30 03:08:09;;;;;;;13.50;12.80;;;;;;;;;;5044191;28;20028;-68
2023/06/30 03:10:34;;;;;;;12.68;12.07;;;;;;;;;;5049904;28;20361;-68
2023/06/30 03:12:59;;;;;;;12.65;12.05;;;;;;;;;;5048535;28;20040;-68
2023/06/30 03:15:25;;;;;;;12.73;12.13;;;;;;;;;;5048305;28;20051;-67
2023/06/30 03:17:50;;;;;;;12.87;12.20;;;;;;;;;;5049384;28;20028;-68
2023/06/30 03:20:16;;;;;;;12.85;12.18;;;;;;;;;;5048565;28;20316;-68
2023/06/30 03:22:42;;;;;;;12.20;11.60;;;;;;;;;;5049701;28;20216;-68
2023/06/30 03:25:08;;;;;;;13.23;12.52;;;;;;;;;;5048243;28;20441;-68
2023/06/30 03:27:34;;;;;;;12.25;11.65;;;;;;;;;;5047266;28;20030;-68
2023/06/30 03:30:00;;;;;;;12.70;12.10;;;;;;;;;;5046285;28;20017;-68
2023/06/30 03:32:25;;;;;;;12.30;11.70;;;;;;;;;;5049009;28;20038;-68
2023/06/30 03:34:51;;;;;;;12.38;11.77;;;;;;;;;;5049666;28;20033;-68
2023/06/30 03:37:16;;;;;;;11.88;11.30;;;;;;;;;;5046704;28;20037;-68
2023/06/30 03:39:41;;;;;;;13.40;12.70;;;;;;;;;;5047775;28;20020;-68
2023/06/30 03:42:07;;;;;;;12.95;12.25;;;;;;;;;;5046949;28;20464;-68
2023/06/30 04:00:12;;;;;;;20.25;18.92;;;;;;;;;;4956703;22;21777;-65
2023/06/30 04:02:37;;;;;;;12.10;11.50;;;;;;;;;;5063113;28;20029;-64
2023/06/30 04:05:02;;;;;;;13.05;12.35;;;;;;;;;;5062963;28;20016;-65
2023/06/30 04:07:28;;;;;;;12.10;11.50;;;;;;;;;;5062447;28;20409;-65
2023/06/30 04:09:53;;;;;;;12.32;11.73;;;;;;;;;;5055960;28;20027;-64
2023/06/30 04:12:18;;;;;;;12.95;12.25;;;;;;;;;;5062407;28;20063;-64
2023/06/30 04:14:44;;;;;;;12.90;12.20;;;;;;;;;;5060138;28;20723;-63
2023/06/30 04:17:09;;;;;;;12.93;12.23;;;;;;;;;;5059009;28;20027;-64
2023/06/30 04:19:34;;;;;;;11.85;11.25;;;;;;;;;;5060314;28;20463;-64
2023/06/30 04:21:59;;;;;;;12.32;11.73;;;;;;;;;;5062207;28;20111;-66
2023/06/30 04:24:25;;;;;;;11.63;11.05;;;;;;;;;;5058442;28;20360;-64
2023/06/30 04:26:50;;;;;;;12.00;11.40;;;;;;;;;;5064722;28;20021;-64
2023/06/30 04:29:15;;;;;;;13.40;12.70;;;;;;;;;;5061249;28;20116;-64
2023/06/30 04:31:40;;;;;;;12.15;11.55;;;;;;;;;;5058997;28;20082;-64
2023/06/30 04:34:06;;;;;;;12.35;11.75;;;;;;;;;;5055122;28;20489;-65
2023/06/30 04:36:31;;;;;;;11.50;11.00;;;;;;;;;;5054377;28;20079;-63
2023/06/30 04:38:57;;;;;;;12.00;11.40;;;;;;;;;;5058565;28;20025;-64
2023/06/30 04:41:23;;;;;;;11.85;11.27;;;;;;;;;;5054772;28;20095;-63
2023/06/30 04:43:48;;;;;;;11.23;10.73;;;;;;;;;;5057091;28;20116;-64
2023/06/30 04:46:13;;;;;;;11.90;11.30;;;;;;;;;;5053893;28;20021;-64
2023/06/30 04:48:38;;;;;;;12.63;12.02;;;;;;;;;;5052875;28;20021;-65
2023/06/30 04:51:04;;;;;;;12.18;11.57;;;;;;;;;;5059568;28;20074;-64
2023/06/30 04:53:29;;;;;;;12.40;11.80;;;;;;;;;;5062206;28;20048;-64
2023/06/30 04:55:54;;;;;;;12.38;11.77;;;;;;;;;;5061673;28;20028;-64
2023/06/30 04:58:20;;;;;;;12.45;11.85;;;;;;;;;;5056558;28;20801;-63
2023/06/30 05:00:45;;;;;;;12.63;12.02;;;;;;;;;;5059918;28;20051;-64
2023/06/30 05:03:10;;;;;;;12.27;11.68;;;;;;;;;;5061477;28;20375;-63
2023/06/30 05:05:36;;;;;;;12.23;11.63;;;;;;;;;;5059548;28;20013;-63
2023/06/30 05:08:01;;;;;;;12.57;11.98;;;;;;;;;;5058676;28;20029;-63
2023/06/30 05:10:26;;;;;;;12.45;11.85;;;;;;;;;;5053015;28;20020;-62
2023/06/30 05:12:52;;;;;;;11.80;11.30;;;;;;;;;;5046612;28;20151;-63
2023/06/30 05:15:17;;;;;;;12.18;11.63;;;;;;;;;;5047542;28;20076;-62
2023/06/30 05:17:43;;;;;;;11.68;11.18;;;;;;;;;;5045222;28;20092;-64
2023/06/30 05:20:08;;;;;;;12.30;11.70;;;;;;;;;;5047482;28;20024;-64
2023/06/30 05:22:34;;;;;;;11.73;11.23;;;;;;;;;;5040478;28;20024;-63
2023/06/30 05:25:00;;;;;;;11.48;10.98;;;;;;;;;;5042844;28;20111;-64
2023/06/30 05:27:25;;;;;;;12.10;11.60;;;;;;;;;;5026030;28;20020;-64
2023/06/30 05:29:50;;;;;;;12.05;11.55;;;;;;;;;;5045685;28;20079;-64
2023/06/30 05:32:15;;;;;;;11.67;11.17;;;;;;;;;;5044337;28;20098;-63
2023/06/30 05:34:46;;;;;;;12.00;11.50;;;;;;;;;;5045848;28;20254;-63
2023/06/30 05:37:11;;;;;;;11.98;11.48;;;;;;;;;;5044791;28;20304;-65
2023/06/30 05:39:37;;;;;;;11.75;11.25;;;;;;;;;;5041123;28;20483;-63
2023/06/30 05:42:03;;;;;;;12.00;11.50;;;;;;;;;;5044356;28;20388;-62
2023/06/30 05:44:28;;;;;;;11.50;11.00;;;;;;;;;;5045602;28;20020;-63
2023/06/30 05:46:53;;;;;;;11.90;11.40;;;;;;;;;;5044907;28;20053;-64
2023/06/30 05:49:19;;;;;;;11.88;11.38;;;;;;;;;;5048677;28;20017;-63
2023/06/30 05:51:44;;;;;;;11.50;11.00;;;;;;;;;;5047650;28;20029;-64
2023/06/30 05:54:10;;;;;;;11.52;11.02;;;;;;;;;;5048993;28;20118;-63
2023/06/30 05:56:35;;;;;;;12.07;11.57;;;;;;;;;;5049775;28;20031;-64
2023/06/30 05:59:00;;;;;;;11.80;11.30;;;;;;;;;;5045651;28;20108;-64
2023/06/30 06:01:26;;;;;;;11.95;11.45;;;;;;;;;;5040473;28;20038;-64
2023/06/30 06:03:51;;;;;;;11.55;11.05;;;;;;;;;;5040878;28;20443;-63
2023/06/30 06:06:17;;;;;;;11.68;11.18;;;;;;;;;;5028201;28;20523;-64
2023/06/30 06:08:43;;;;;;;11.40;10.90;;;;;;;;;;5045939;28;20067;-65
2023/06/30 06:11:08;;;;;;;11.70;11.20;;;;;;;;;;5043150;28;20301;-65
2023/06/30 06:13:34;;;;;;;11.80;11.30;;;;;;;;;;5047650;28;20178;-67
2023/06/30 06:16:00;;;;;;;11.68;11.18;;;;;;;;;;5045317;28;20270;-64
2023/06/30 06:18:26;;;;;;;11.75;11.25;;;;;;;;;;5046879;28;20364;-65
2023/06/30 06:20:51;;;;;;;11.30;10.80;;;;;;;;;;5043486;28;20021;-64
2023/06/30 06:23:16;;;;;;;11.80;11.30;;;;;;;;;;5045220;28;20039;-62
2023/06/30 06:25:41;;;;;;;11.20;10.70;;;;;;;;;;5047865;28;20770;-64
2023/06/30 06:28:07;;;;;;;11.77;11.27;;;;;;;;;;5048309;28;20059;-63
2023/06/30 06:30:32;;;;;;;11.33;10.83;;;;;;;;;;5047473;28;20267;-63
2023/06/30 06:32:57;;;;;;;11.47;10.97;;;;;;;;;;5043728;28;20297;-63
2023/06/30 06:35:22;;;;;;;11.60;11.10;;;;;;;;;;5048718;28;20090;-63
2023/06/30 06:37:48;;;;;;;11.63;11.13;;;;;;;;;;5047424;28;20527;-63
2023/06/30 06:40:13;;;;;;;11.53;11.03;;;;;;;;;;5048084;28;20095;-64
2023/06/30 06:42:38;;;;;;;11.88;11.38;;;;;;;;;;5045536;28;20331;-64
2023/06/30 06:45:04;;;;;;;12.02;11.52;;;;;;;;;;5046107;28;20031;-64
2023/06/30 06:47:48;;;;;;;11.77;11.27;;;;;;;;;;5041235;28;20478;-64
2023/06/30 06:50:13;;;;;;;11.70;11.20;;;;;;;;;;5045798;28;20555;-64
2023/06/30 06:52:38;;;;;;;11.60;11.10;;;;;;;;;;5050320;28;20053;-64
2023/06/30 06:55:04;;;;;;;11.50;11.00;;;;;;;;;;5041469;28;20292;-63
2023/06/30 06:57:29;;;;;;;11.82;11.32;;;;;;;;;;5045404;28;20033;-63
2023/06/30 06:59:57;;;;;;;11.27;10.77;;;;;;;;;;5046092;28;20475;-63
2023/06/30 07:02:22;;;;;;;11.90;11.40;;;;;;;;;;5046709;28;20067;-63
2023/06/30 07:04:47;;;;;;;11.30;10.80;;;;;;;;;;5046169;28;20017;-63
2023/06/30 07:07:12;;;;;;;11.63;11.13;;;;;;;;;;5044059;28;20157;-64
2023/06/30 07:09:38;;;;;;;11.47;10.97;;;;;;;;;;5049809;28;20475;-64
2023/06/30 07:12:03;;;;;;;11.53;11.03;;;;;;;;;;5047899;28;20258;-63
2023/06/30 07:14:29;;;;;;;12.30;11.75;;;;;;;;;;5043010;28;20273;-63
2023/06/30 07:16:54;;;;;;;12.33;11.73;;;;;;;;;;5043522;28;20036;-64
2023/06/30 07:19:19;;;;;;;12.35;11.75;;;;;;;;;;5045471;28;20277;-63
2023/06/30 07:21:44;;;;;;;11.70;11.20;;;;;;;;;;5049418;28;20024;-63
2023/06/30 07:24:10;;;;;;;12.30;11.70;;;;;;;;;;5045273;28;20345;-63
2023/06/30 07:26:35;;;;;;;12.38;11.77;;;;;;;;;;5041064;28;20423;-64
2023/06/30 07:29:00;;;;;;;12.00;11.50;;;;;;;;;;5045091;28;20021;-63
2023/06/30 07:31:25;;;;;;;11.90;11.40;;;;;;;;;;5032871;28;20267;-62
2023/06/30 07:33:51;;;;;;;11.27;10.77;;;;;;;;;;5049115;28;20032;-63
2023/06/30 07:36:16;;;;;;;11.43;10.93;;;;;;;;;;5046479;28;20028;-64
2023/06/30 07:38:41;;;;;;;12.50;11.90;;;;;;;;;;5046342;28;20025;-63
2023/06/30 07:41:07;;;;;;;11.55;11.05;;;;;;;;;;5044185;28;20269;-64
2023/06/30 07:43:32;;;;;;;12.40;11.80;;;;;;;;;;5043543;28;20021;-64
2023/06/30 07:45:57;;;;;;;11.75;11.25;;;;;;;;;;5043566;28;20032;-64
2023/06/30 07:48:22;;;;;;;12.00;11.50;;;;;;;;;;5046824;28;20020;-64
2023/06/30 07:50:48;;;;;;;11.50;11.00;;;;;;;;;;5048355;28;20265;-63
2023/06/30 07:53:13;;;;;;;11.88;11.38;;;;;;;;;;5048938;28;20257;-64
2023/06/30 07:55:38;;;;;;;11.97;11.47;;;;;;;;;;5043116;28;20542;-64
2023/06/30 07:58:04;;;;;;;11.90;11.40;;;;;;;;;;5041508;28;20269;-63
2023/06/30 08:00:30;;;;;;;12.03;11.53;;;;;;;;;;5040247;28;20765;-64
2023/06/30 08:02:55;;;;;;;12.77;12.18;;;;;;;;;;5029045;28;20668;-63
2023/06/30 08:05:21;;;;;;;11.80;11.30;;;;;;;;;;5041889;28;20025;-63
2023/06/30 08:07:47;;;;;;;11.63;11.13;;;;;;;;;;5045459;28;20041;-63
2023/06/30 08:10:12;;;;;;;12.10;11.60;;;;;;;;;;5039628;28;20032;-64
2023/06/30 08:12:37;;;;;;;11.88;11.38;;;;;;;;;;5042565;28;20037;-63
2023/06/30 08:15:03;;;;;;;12.27;11.68;;;;;;;;;;5041500;28;20021;-63
2023/06/30 08:17:28;;;;;;;12.55;11.95;;;;;;;;;;5043071;28;20029;-63
2023/06/30 08:19:53;;;;;;;11.90;11.40;;;;;;;;;;5036761;28;20036;-63
2023/06/30 08:22:21;;;;;;;12.05;11.55;;;;;;;;;;5046589;28;20024;-64
2023/06/30 08:24:46;;;;;;;11.55;11.05;;;;;;;;;;5039054;28;20380;-63
2023/06/30 08:27:11;;;;;;;11.60;11.10;;;;;;;;;;5048909;28;20031;-63
2023/06/30 08:29:37;;;;;;;11.95;11.45;;;;;;;;;;5043112;28;20327;-62
2023/06/30 08:32:03;;;;;;;11.90;11.40;;;;;;;;;;5045201;28;20091;-63
2023/06/30 08:34:28;;;;;;;12.13;11.60;;;;;;;;;;5044129;28;20036;-62
2023/06/30 08:36:54;;;;;;;12.27;11.68;;;;;;;;;;5049226;28;20113;-62
2023/06/30 08:39:20;;;;;;;11.40;10.90;;;;;;;;;;5036690;28;20599;-63
2023/06/30 08:41:47;;;;;;;11.88;11.38;;;;;;;;;;5049170;28;20108;-64
2023/06/30 08:44:12;;;;;;;11.57;11.07;;;;;;;;;;5042696;28;20041;-63
2023/06/30 08:46:38;;;;;;;11.90;11.40;;;;;;;;;;5039660;28;20085;-63
2023/06/30 08:49:03;;;;;;;11.85;11.35;;;;;;;;;;5043898;28;20040;-63
2023/06/30 08:51:29;;;;;;;11.48;10.98;;;;;;;;;;5050974;28;20063;-63
2023/06/30 08:53:54;;;;;;;11.70;11.20;;;;;;;;;;5047248;28;20033;-64
2023/06/30 08:56:20;;;;;;;12.32;11.73;;;;;;;;;;5051020;28;20024;-64
2023/06/30 08:58:45;;;;;;;12.48;11.88;;;;;;;;;;5050207;28;20112;-64
2023/06/30 09:01:12;;;;;;;11.97;11.47;;;;;;;;;;5049020;28;20040;-63
2023/06/30 09:03:37;;;;;;;13.00;12.40;;;;;;;;;;5050763;28;20268;-63
2023/06/30 09:06:03;;;;;;;12.23;11.68;;;;;;;;;;5049101;28;20021;-62
2023/06/30 09:08:32;;;;;;;12.35;11.75;;;;;;;;;;5050052;28;20024;-64
2023/06/30 09:10:58;;;;;;;12.15;11.63;;;;;;;;;;5048512;28;20028;-63
2023/06/30 09:13:23;;;;;;;12.13;11.60;;;;;;;;;;5050223;28;20381;-63
2023/06/30 09:15:50;;;;;;;12.55;11.95;;;;;;;;;;5047152;28;20039;-63
2023/06/30 09:18:15;;;;;;;12.00;11.50;;;;;;;;;;5046582;28;20539;-64
2023/06/30 09:20:41;;;;;;;12.05;11.55;;;;;;;;;;5045829;28;20079;-63
2023/06/30 09:23:07;;;;;;;11.32;10.82;;;;;;;;;;5035079;28;20113;-63
2023/06/30 09:25:32;;;;;;;11.45;10.95;;;;;;;;;;5043470;28;20140;-63
2023/06/30 09:27:58;;;;;;;10.95;10.45;;;;;;;;;;5052841;28;20036;-63
2023/06/30 09:30:32;;;;;;;11.60;11.10;;;;;;;;;;5044953;28;20028;-64
2023/06/30 09:32:58;;;;;;;11.32;10.82;;;;;;;;;;5052362;28;20028;-64
2023/06/30 09:35:23;;;;;;;11.82;11.32;;;;;;;;;;5041016;28;20021;-63
2023/06/30 09:37:49;;;;;;;11.25;10.75;;;;;;;;;;5045300;28;20037;-63
2023/06/30 09:40:14;;;;;;;12.20;11.63;;;;;;;;;;5050857;28;20108;-63
2023/06/30 09:42:43;;;;;;;11.55;11.05;;;;;;;;;;5049148;28;20017;-63
2023/06/30 09:45:08;;;;;;;11.82;11.32;;;;;;;;;;5045427;28;20559;-63
2023/06/30 09:47:34;;;;;;;12.60;12.00;;;;;;;;;;5047911;28;20067;-63
2023/06/30 09:49:59;;;;;;;11.57;11.07;;;;;;;;;;5046604;28;20491;-63
2023/06/30 09:52:27;;;;;;;12.00;11.50;;;;;;;;;;5043379;28;20029;-63
2023/06/30 09:54:54;;;;;;;11.27;10.77;;;;;;;;;;5047210;28;20692;-62
2023/06/30 09:57:19;;;;;;;11.43;10.93;;;;;;;;;;5050951;28;20021;-62
2023/06/30 09:59:47;;;;;;;12.00;11.47;;;;;;;;;;5049235;28;20476;-63
2023/06/30 10:02:13;;;;;;;11.68;11.18;;;;;;;;;;5044883;28;20373;-64
2023/06/30 10:04:39;;;;;;;12.25;11.68;;;;;;;;;;5050193;28;20101;-62
2023/06/30 10:07:05;;;;;;;11.70;11.20;;;;;;;;;;5051136;28;20020;-63
2023/06/30 10:09:31;;;;;;;11.57;11.07;;;;;;;;;;5051640;28;20029;-63
2023/06/30 10:11:57;;;;;;;11.52;11.02;;;;;;;;;;5050876;28;20017;-63
2023/06/30 10:14:27;;;;;;;12.45;11.85;;;;;;;;;;5048962;28;20048;-63
2023/06/30 10:16:53;;;;;;;11.60;11.10;;;;;;;;;;5051507;28;20040;-63
2023/06/30 10:19:19;;;;;;;11.50;11.00;;;;;;;;;;5046354;28;20067;-63
2023/06/30 10:21:44;;;;;;;11.93;11.43;;;;;;;;;;5050261;28;20545;-63
2023/06/30 10:24:10;;;;;;;11.98;11.45;;;;;;;;;;5039454;28;20382;-63
2023/06/30 10:26:38;;;;;;;12.20;11.60;;;;;;;;;;5044574;28;20021;-63
2023/06/30 10:29:03;;;;;;;12.25;11.65;;;;;;;;;;5045606;28;20029;-63
2023/06/30 10:31:30;;;;;;;11.80;11.30;;;;;;;;;;5041217;28;20472;-63
2023/06/30 10:33:55;;;;;;;11.35;10.85;;;;;;;;;;5046317;28;20025;-63
2023/06/30 10:36:20;;;;;;;12.57;11.98;;;;;;;;;;5043424;28;20028;-62
2023/06/30 10:38:46;;;;;;;11.73;11.23;;;;;;;;;;5040856;28;20035;-63
2023/06/30 10:41:19;;;;;;;11.40;10.90;;;;;;;;;;5045671;28;20021;-64
2023/06/30 10:44:00;;;;;;;12.23;11.63;;;;;;;;;;5049505;28;20016;-63
2023/06/30 10:46:39;;;;;;;11.88;11.38;;;;;;;;;;5047757;28;20051;-63
2023/06/30 10:49:05;;;;;;;11.38;10.88;;;;;;;;;;5044089;28;20029;-64
2023/06/30 10:51:34;;;;;;;11.45;10.95;;;;;;;;;;5049161;28;20017;-63
2023/06/30 10:53:59;;;;;;;11.48;10.98;;;;;;;;;;5040607;28;20033;-63
2023/06/30 10:56:27;;;;;;;12.35;11.75;;;;;;;;;;5042941;28;20404;-63
2023/06/30 10:58:55;;;;;;;12.13;11.55;;;;;;;;;;5044083;28;20024;-62
2023/06/30 11:01:20;;;;;;;11.70;11.20;;;;;;;;;;5044528;28;20053;-64
2023/06/30 11:03:57;;;;;;;11.57;11.07;;;;;;;;;;5042840;28;20017;-64
2023/06/30 11:06:23;;;;;;;11.88;11.38;;;;;;;;;;5043644;28;20258;-63
2023/06/30 11:09:09;;;;;;;11.77;11.27;;;;;;;;;;5043262;28;20029;-63
2023/06/30 11:11:51;;;;;;;12.18;11.60;;;;;;;;;;5041201;28;20388;-63
2023/06/30 11:14:39;;;;;;;11.90;11.40;;;;;;;;;;5046553;28;20043;-63
2023/06/30 11:17:05;;;;;;;11.73;11.23;;;;;;;;;;5045581;28;20550;-63
2023/06/30 11:19:30;;;;;;;12.68;12.07;;;;;;;;;;5047273;28;20079;-63
2023/06/30 11:22:14;;;;;;;12.50;11.90;;;;;;;;;;5043189;28;20021;-63
2023/06/30 11:24:40;;;;;;;11.80;11.30;;;;;;;;;;5024904;28;20033;-64
2023/06/30 11:27:05;;;;;;;12.00;11.50;;;;;;;;;;5045234;28;20378;-64
2023/06/30 11:29:31;;;;;;;12.00;11.50;;;;;;;;;;5044460;28;20017;-63
2023/06/30 11:31:56;;;;;;;12.15;11.57;;;;;;;;;;5044865;28;20083;-63
2023/06/30 11:34:21;;;;;;;12.63;12.03;;;;;;;;;;5046944;28;20016;-63
2023/06/30 11:36:47;;;;;;;12.07;11.55;;;;;;;;;;5030351;28;20771;-62
2023/06/30 11:39:13;;;;;;;11.80;11.30;;;;;;;;;;5042581;28;20141;-62
2023/06/30 11:41:39;;;;;;;11.70;11.20;;;;;;;;;;5046994;28;20040;-63
2023/06/30 11:44:04;;;;;;;11.80;11.30;;;;;;;;;;5041825;28;20102;-63
2023/06/30 11:46:35;;;;;;;11.98;11.43;;;;;;;;;;5042629;28;20033;-62
2023/06/30 11:49:01;;;;;;;12.10;11.55;;;;;;;;;;5043543;28;20032;-63
2023/06/30 11:51:26;;;;;;;12.02;11.50;;;;;;;;;;5038339;28;20120;-62
2023/06/30 11:53:51;;;;;;;12.37;11.77;;;;;;;;;;5043626;28;20495;-63
2023/06/30 11:56:17;;;;;;;12.00;11.45;;;;;;;;;;5046412;28;20388;-62
2023/06/30 11:58:48;;;;;;;11.85;11.35;;;;;;;;;;5046176;28;20108;-62
2023/06/30 12:01:13;;;;;;;12.35;11.75;;;;;;;;;;5044010;28;20075;-64
2023/06/30 12:03:39;;;;;;;11.60;11.10;;;;;;;;;;5044388;28;20506;-63
2023/06/30 12:06:04;;;;;;;11.85;11.35;;;;;;;;;;5040087;28;20547;-63
2023/06/30 12:08:30;;;;;;;11.50;11.00;;;;;;;;;;5043805;28;20040;-62
2023/06/30 12:10:56;;;;;;;11.30;10.80;;;;;;;;;;5046657;28;20684;-64
2023/06/30 12:13:27;;;;;;;12.25;11.65;;;;;;;;;;5045107;28;20021;-62
2023/06/30 12:15:56;;;;;;;12.13;11.55;;;;;;;;;;5043380;28;20033;-63
2023/06/30 12:18:48;;;;;;;11.50;11.00;;;;;;;;;;5039357;28;20033;-62
2023/06/30 12:21:13;;;;;;;12.02;11.50;;;;;;;;;;5040848;28;20120;-62
2023/06/30 12:23:43;;;;;;;11.75;11.25;;;;;;;;;;5041865;28;20100;-63
2023/06/30 12:26:08;;;;;;;11.82;11.32;;;;;;;;;;5044010;28;20021;-63
2023/06/30 12:28:34;;;;;;;12.15;11.63;;;;;;;;;;5046408;28;20033;-63
2023/06/30 12:30:59;;;;;;;12.30;11.70;;;;;;;;;;5042651;28;20409;-63
2023/06/30 12:33:25;;;;;;;11.70;11.20;;;;;;;;;;5024128;28;20069;-63
2023/06/30 12:35:50;;;;;;;11.43;10.93;;;;;;;;;;5041896;28;20935;-63
2023/06/30 12:38:15;;;;;;;12.23;11.67;;;;;;;;;;5040839;28;20029;-63
2023/06/30 12:40:40;;;;;;;12.00;11.50;;;;;;;;;;5043725;28;20263;-63
2023/06/30 12:43:06;;;;;;;11.77;11.27;;;;;;;;;;5042119;28;20270;-63
2023/06/30 12:45:31;;;;;;;12.23;11.63;;;;;;;;;;5047350;28;20261;-63
2023/06/30 12:47:56;;;;;;;11.38;10.88;;;;;;;;;;5051538;28;20025;-63
2023/06/30 12:50:22;;;;;;;13.20;12.60;;;;;;;;;;5048490;28;20024;-62
2023/06/30 12:52:47;;;;;;;12.60;12.00;;;;;;;;;;5043149;28;20270;-64
2023/06/30 12:55:13;;;;;;;12.35;11.75;;;;;;;;;;5045859;28;20031;-64
2023/06/30 12:57:40;;;;;;;12.55;11.95;;;;;;;;;;5048396;28;20033;-61
2023/06/30 13:00:09;;;;;;;11.48;10.98;;;;;;;;;;5041411;28;20434;-61
2023/06/30 13:02:35;;;;;;;11.93;11.43;;;;;;;;;;5041745;28;20107;-64
2023/06/30 13:05:00;;;;;;;11.55;11.05;;;;;;;;;;5045596;28;20442;-65
2023/06/30 13:07:26;;;;;;;11.60;11.10;;;;;;;;;;5045773;28;20025;-64
2023/06/30 13:09:51;;;;;;;11.63;11.13;;;;;;;;;;5035442;28;20606;-61
2023/06/30 13:12:24;;;;;;;12.82;12.23;;;;;;;;;;5044191;28;20423;-61
2023/06/30 13:14:49;;;;;;;12.80;12.20;;;;;;;;;;5042706;28;20065;-62
2023/06/30 13:17:14;;;;;;;12.27;11.68;;;;;;;;;;5045498;28;20432;-61
2023/06/30 13:19:47;;;;;;;12.63;12.02;;;;;;;;;;5020125;28;20498;-62
2023/06/30 13:22:13;;;;;;;12.63;12.02;;;;;;;;;;5032639;28;20028;-62
2023/06/30 13:24:39;;;;;;;12.82;12.23;;;;;;;;;;5042229;28;20051;-61
2023/06/30 13:27:04;;;;;;;12.45;11.85;;;;;;;;;;5046829;28;20474;-62
2023/06/30 13:29:31;;;;;;;12.23;11.63;;;;;;;;;;5042807;28;20025;-61
2023/06/30 13:31:57;;;;;;;12.27;11.68;;;;;;;;;;5044094;28;20025;-62
2023/06/30 13:34:22;;;;;;;13.10;12.50;;;;;;;;;;5044843;28;20029;-62
2023/06/30 13:36:48;;;;;;;12.82;12.23;;;;;;;;;;5045802;28;20052;-63
2023/06/30 13:39:13;;;;;;;12.70;12.10;;;;;;;;;;5037969;28;20029;-62
2023/06/30 13:41:38;;;;;;;12.52;11.93;;;;;;;;;;5044240;28;20387;-62
2023/06/30 13:44:04;;;;;;;11.83;11.33;;;;;;;;;;5043829;28;20029;-60
2023/06/30 13:46:29;;;;;;;13.07;12.48;;;;;;;;;;5042751;28;20266;-63
2023/06/30 13:48:54;;;;;;;12.55;11.95;;;;;;;;;;5042145;28;20628;-62
2023/06/30 13:51:21;;;;;;;13.52;12.93;;;;;;;;;;5044014;28;20021;-64
2023/06/30 13:53:46;;;;;;;12.57;11.98;;;;;;;;;;5045017;28;20048;-62
2023/06/30 13:56:11;;;;;;;13.20;12.60;;;;;;;;;;5041949;28;20021;-61
2023/06/30 13:58:37;;;;;;;12.90;12.30;;;;;;;;;;5039172;28;20668;-62
2023/06/30 14:01:02;;;;;;;13.25;12.65;;;;;;;;;;5027094;28;20057;-62
2023/06/30 14:03:27;;;;;;;12.18;11.57;;;;;;;;;;5045350;28;20402;-62
2023/06/30 14:05:53;;;;;;;12.40;11.80;;;;;;;;;;5043891;28;20073;-62
2023/06/30 14:08:19;;;;;;;13.20;12.60;;;;;;;;;;5040944;28;20029;-63
2023/06/30 14:10:45;;;;;;;12.63;12.02;;;;;;;;;;5043808;28;20082;-61
2023/06/30 14:13:10;;;;;;;12.90;12.30;;;;;;;;;;5043370;28;20551;-62
2023/06/30 14:15:35;;;;;;;13.55;12.95;;;;;;;;;;5042251;28;20043;-69
2023/06/30 14:18:01;;;;;;;12.43;11.83;;;;;;;;;;5041314;28;20025;-63
2023/06/30 14:20:26;;;;;;;12.77;12.17;;;;;;;;;;5045414;28;20828;-61
2023/06/30 14:22:51;;;;;;;12.77;12.18;;;;;;;;;;5041074;28;20270;-62
2023/06/30 14:25:19;;;;;;;12.85;12.25;;;;;;;;;;5043358;28;20029;-61